createdAt,value
2019-05-06T00:00:36.673Z,4.89
2019-05-06T00:03:06.129Z,4.94
2019-05-06T00:05:37.337Z,4.97
2019-05-06T00:08:06.798Z,5.00
2019-05-06T00:10:37.797Z,4.93
2019-05-06T00:13:07.393Z,4.98
2019-05-06T00:15:37.019Z,4.85
2019-05-06T00:18:06.742Z,4.76
2019-05-06T00:20:36.483Z,4.81
2019-05-06T00:23:07.825Z,4.71
2019-05-06T00:25:45.063Z,4.63
2019-05-06T00:28:16.513Z,4.46
2019-05-06T00:30:47.668Z,4.45
2019-05-06T00:33:17.188Z,4.34
2019-05-06T00:35:46.654Z,4.29
2019-05-06T00:38:16.114Z,4.24
2019-05-06T00:40:47.200Z,4.18
2019-05-06T00:43:16.681Z,4.09
2019-05-06T00:45:47.121Z,4.02
2019-05-06T00:48:16.625Z,4.00
2019-05-06T00:50:46.105Z,4.03
2019-05-06T00:53:17.172Z,4.02
2019-05-06T00:55:46.748Z,4.09
2019-05-06T00:58:16.218Z,4.02
2019-05-06T01:00:45.772Z,3.97
2019-05-06T01:03:15.293Z,3.91
2019-05-06T01:05:44.771Z,3.82
2019-05-06T01:08:19.876Z,3.80
2019-05-06T01:10:49.444Z,3.77
2019-05-06T01:13:20.719Z,3.69
2019-05-06T01:15:50.544Z,3.68
2019-05-06T01:18:20.042Z,3.65
2019-05-06T01:20:51.138Z,3.66
2019-05-06T01:23:20.781Z,3.57
2019-05-06T01:25:50.306Z,3.62
2019-05-06T01:28:19.763Z,3.59
2019-05-06T01:30:49.220Z,3.56
2019-05-06T01:33:18.746Z,3.51
2019-05-06T01:35:48.224Z,3.52
2019-05-06T01:38:19.321Z,3.50
2019-05-06T01:40:50.437Z,3.53
2019-05-06T01:43:21.539Z,3.59
2019-05-06T01:45:51.001Z,3.54
2019-05-06T01:48:22.119Z,3.38
2019-05-06T01:50:51.605Z,3.29
2019-05-06T01:53:21.060Z,3.21
2019-05-06T01:55:50.536Z,3.21
2019-05-06T01:58:20.025Z,3.19
2019-05-06T02:00:50.549Z,3.19
2019-05-06T02:03:20.044Z,3.15
2019-05-06T02:05:49.539Z,3.04
2019-05-06T02:08:18.989Z,3.04
2019-05-06T02:10:48.513Z,3.01
2019-05-06T02:13:17.994Z,2.93
2019-05-06T02:15:47.452Z,2.95
2019-05-06T02:18:18.712Z,2.91
2019-05-06T02:20:49.889Z,2.87
2019-05-06T02:23:21.142Z,2.83
2019-05-06T02:25:53.990Z,2.79
2019-05-06T02:28:23.681Z,2.71
2019-05-06T02:30:55.026Z,2.77
2019-05-06T02:33:35.723Z,2.81
2019-05-06T02:36:07.206Z,2.74
2019-05-06T02:38:47.030Z,2.72
2019-05-06T02:41:27.256Z,2.71
2019-05-06T02:43:56.746Z,2.65
2019-05-06T02:46:26.218Z,2.57
2019-05-06T02:48:57.325Z,2.45
2019-05-06T02:51:26.962Z,2.50
2019-05-06T02:54:15.763Z,2.49
2019-05-06T02:56:45.237Z,2.50
2019-05-06T02:59:14.889Z,2.52
2019-05-06T03:01:45.363Z,2.54
2019-05-06T03:04:14.959Z,2.54
2019-05-06T03:06:44.917Z,2.59
2019-05-06T03:09:14.515Z,2.53
2019-05-06T03:11:44.057Z,2.42
2019-05-06T03:14:14.101Z,2.42
2019-05-06T03:16:44.175Z,2.43
2019-05-06T03:19:13.942Z,2.41
2019-05-06T03:21:45.179Z,2.42
2019-05-06T03:26:58.225Z,2.34
2019-05-06T03:29:27.747Z,2.33
2019-05-06T03:31:57.608Z,2.32
2019-05-06T03:34:49.190Z,2.35
2019-05-06T03:36:58.631Z,2.35
2019-05-06T03:39:28.087Z,2.39
2019-05-06T03:41:57.598Z,2.34
2019-05-06T03:44:27.067Z,2.31
2019-05-06T03:46:58.529Z,2.27
2019-05-06T03:49:29.661Z,2.28
2019-05-06T03:51:59.158Z,2.28
2019-05-06T03:54:29.714Z,2.30
2019-05-06T03:56:59.496Z,2.41
2019-05-06T03:59:33.564Z,2.38
2019-05-06T04:02:05.336Z,2.38
2019-05-06T04:04:34.422Z,2.40
2019-05-06T04:07:04.162Z,2.39
2019-05-06T04:09:36.931Z,2.34
2019-05-06T04:12:05.165Z,2.20
2019-05-06T04:14:34.919Z,2.14
2019-05-06T04:17:06.254Z,2.16
2019-05-06T04:19:38.263Z,1.90
2019-05-06T04:22:12.562Z,2.07
2019-05-06T04:24:43.061Z,2.05
2019-05-06T04:27:18.889Z,2.01
2019-05-06T04:29:48.660Z,2.11
2019-05-06T04:32:18.849Z,2.17
2019-05-06T04:34:48.788Z,2.24
2019-05-06T04:37:19.403Z,2.14
2019-05-06T04:39:53.160Z,2.17
2019-05-06T04:42:23.261Z,2.17
2019-05-06T04:44:53.722Z,2.19
2019-05-06T04:47:24.311Z,2.30
2019-05-06T04:49:54.433Z,2.28
2019-05-06T04:52:26.053Z,2.34
2019-05-06T04:54:55.136Z,2.44
2019-05-06T04:57:25.026Z,2.44
2019-05-06T04:59:55.336Z,2.51
2019-05-06T05:02:25.191Z,2.58
2019-05-06T05:05:06.960Z,2.68
2019-05-06T05:07:36.921Z,2.77
2019-05-06T05:10:08.798Z,2.89
2019-05-06T05:12:42.563Z,2.92
2019-05-06T05:15:13.133Z,3.01
2019-05-06T05:17:44.203Z,3.08
2019-05-06T05:20:14.102Z,3.29
2019-05-06T05:22:43.796Z,3.49
2019-05-06T05:25:13.893Z,3.66
2019-05-06T05:27:43.495Z,3.80
2019-05-06T05:30:13.568Z,3.89
2019-05-06T05:32:43.350Z,4.12
2019-05-06T05:35:13.132Z,4.14
2019-05-06T05:37:42.660Z,4.27
2019-05-06T05:40:12.996Z,4.39
2019-05-06T05:42:44.649Z,4.60
2019-05-06T05:45:14.810Z,4.84
2019-05-06T05:47:44.821Z,5.02
2019-05-06T05:50:16.257Z,5.25
2019-05-06T05:52:45.975Z,5.51
2019-05-06T05:55:15.586Z,5.69
2019-05-06T05:57:45.225Z,5.69
2019-05-06T06:00:16.614Z,5.92
2019-05-06T06:02:46.308Z,6.12
2019-05-06T06:05:16.225Z,6.29
2019-05-06T06:07:45.951Z,6.40
2019-05-06T06:10:17.732Z,6.71
2019-05-06T06:12:47.302Z,6.88
2019-05-06T06:15:18.689Z,6.68
2019-05-06T06:17:51.941Z,6.88
2019-05-06T06:20:23.323Z,7.22
2019-05-06T06:22:54.160Z,7.26
2019-05-06T06:25:24.323Z,7.64
2019-05-06T06:27:54.246Z,6.90
2019-05-06T06:30:25.390Z,7.12
2019-05-06T06:32:56.115Z,7.54
2019-05-06T06:35:27.272Z,8.11
2019-05-06T06:37:58.420Z,7.72
2019-05-06T06:40:28.149Z,8.43
2019-05-06T06:42:59.293Z,8.45
2019-05-06T06:45:28.837Z,8.48
2019-05-06T06:47:58.362Z,8.96
2019-05-06T06:50:38.641Z,8.92
2019-05-06T06:53:08.097Z,9.45
2019-05-06T06:55:39.249Z,9.84
2019-05-06T06:58:12.015Z,10.20
2019-05-06T07:00:43.158Z,9.35
2019-05-06T07:03:14.323Z,9.30
2019-05-06T07:05:46.376Z,10.37
2019-05-06T07:08:15.842Z,11.17
2019-05-06T07:10:45.691Z,11.56
2019-05-06T07:13:16.999Z,13.10
2019-05-06T07:15:46.798Z,14.38
2019-05-06T07:18:16.499Z,15.91
2019-05-06T07:20:47.838Z,16.27
2019-05-06T07:23:18.978Z,17.45
2019-05-06T07:25:48.567Z,20.55
2019-05-06T07:28:18.157Z,21.18
2019-05-06T07:30:47.653Z,22.73
2019-05-06T07:33:17.209Z,23.64
2019-05-06T07:35:46.793Z,24.70
2019-05-06T07:38:16.347Z,18.76
2019-05-06T07:40:53.501Z,18.72
2019-05-06T07:43:24.667Z,16.55
2019-05-06T07:45:55.773Z,15.02
2019-05-06T07:48:25.252Z,14.40
2019-05-06T07:50:54.973Z,16.19
2019-05-06T07:53:24.508Z,17.26
2019-05-06T07:55:54.028Z,18.11
2019-05-06T07:58:23.501Z,19.78
2019-05-06T08:00:53.007Z,17.39
2019-05-06T08:03:22.590Z,18.09
2019-05-06T08:05:58.250Z,18.50
2019-05-06T08:08:23.279Z,20.38
2019-05-06T08:10:52.820Z,23.13
2019-05-06T08:13:22.682Z,22.75
2019-05-06T08:15:53.029Z,20.87
2019-05-06T08:18:23.475Z,23.02
2019-05-06T08:20:57.806Z,23.48
2019-05-06T08:23:28.956Z,22.08
2019-05-06T08:26:10.018Z,17.30
2019-05-06T08:28:38.596Z,16.56
2019-05-06T08:31:02.380Z,15.01
2019-05-06T08:33:32.738Z,14.29
2019-05-06T08:36:11.700Z,14.93
2019-05-06T08:38:36.882Z,14.37
2019-05-06T08:41:06.526Z,15.50
2019-05-06T08:43:35.994Z,15.69
2019-05-06T08:46:05.498Z,15.72
2019-05-06T08:48:35.021Z,13.28
2019-05-06T08:51:09.005Z,12.90
2019-05-06T08:53:39.007Z,11.80
2019-05-06T08:56:12.584Z,12.21
2019-05-06T08:58:43.327Z,11.21
2019-05-06T09:01:15.044Z,11.80
2019-05-06T09:03:44.968Z,12.20
2019-05-06T09:06:26.481Z,11.91
2019-05-06T09:09:07.547Z,12.18
2019-05-06T09:11:37.249Z,12.38
2019-05-06T09:14:09.821Z,12.34
2019-05-06T09:16:38.917Z,13.13
2019-05-06T09:19:27.719Z,13.53
2019-05-06T09:21:57.273Z,13.76
2019-05-06T09:24:26.739Z,14.05
2019-05-06T09:26:57.933Z,13.84
2019-05-06T09:29:29.058Z,13.77
2019-05-06T09:32:01.814Z,13.90
2019-05-06T09:34:32.999Z,13.88
2019-05-06T09:37:07.814Z,13.49
2019-05-06T09:39:37.327Z,14.33
2019-05-06T09:42:06.948Z,14.63
2019-05-06T09:44:36.408Z,14.89
2019-05-06T09:47:07.828Z,14.80
2019-05-06T09:49:38.984Z,14.65
2019-05-06T09:52:08.485Z,14.69
2019-05-06T09:54:39.779Z,14.90
2019-05-06T09:57:12.891Z,14.65
2019-05-06T09:59:42.267Z,15.15
2019-05-06T10:02:12.541Z,14.68
2019-05-06T10:04:42.919Z,15.33
2019-05-06T10:07:12.778Z,15.63
2019-05-06T10:09:43.409Z,13.49
2019-05-06T10:12:13.394Z,14.09
2019-05-06T10:14:43.529Z,15.60
2019-05-06T10:17:13.411Z,17.88
2019-05-06T10:19:43.181Z,19.78
2019-05-06T10:22:12.933Z,21.46
2019-05-06T10:24:43.109Z,21.98
2019-05-06T10:27:13.170Z,20.82
2019-05-06T10:29:44.311Z,19.65
2019-05-06T10:32:22.433Z,18.00
2019-05-06T10:34:52.627Z,17.47
2019-05-06T10:37:27.893Z,14.34
2019-05-06T10:40:04.875Z,13.46
2019-05-06T10:42:38.954Z,14.56
2019-05-06T10:45:13.123Z,14.84
2019-05-06T10:47:42.623Z,14.87
2019-05-06T10:50:12.748Z,15.29
2019-05-06T10:52:43.834Z,16.33
2019-05-06T10:55:13.483Z,15.61
2019-05-06T10:57:44.714Z,17.96
2019-05-06T11:00:14.745Z,18.66
2019-05-06T11:02:45.895Z,18.95
2019-05-06T11:05:16.839Z,18.06
2019-05-06T11:07:46.384Z,17.83
2019-05-06T11:10:24.443Z,17.90
2019-05-06T11:12:47.702Z,17.89
2019-05-06T11:15:23.518Z,17.97
2019-05-06T11:17:52.945Z,18.50
2019-05-06T11:20:24.150Z,18.29
2019-05-06T11:22:54.081Z,17.87
2019-05-06T11:25:23.713Z,17.06
2019-05-06T11:27:53.394Z,17.12
2019-05-06T11:30:24.800Z,17.36
2019-05-06T11:32:56.093Z,18.42
2019-05-06T11:35:27.343Z,19.09
2019-05-06T11:37:59.462Z,19.77
2019-05-06T11:40:28.987Z,18.05
2019-05-06T11:42:58.535Z,18.86
2019-05-06T11:45:28.049Z,18.13
2019-05-06T11:47:57.523Z,18.34
2019-05-06T11:50:27.170Z,18.66
2019-05-06T11:52:57.350Z,18.55
2019-05-06T11:55:31.227Z,18.38
2019-05-06T11:57:58.084Z,18.29
2019-05-06T12:00:29.430Z,17.10
2019-05-06T12:02:58.927Z,17.37
2019-05-06T12:05:28.706Z,17.44
2019-05-06T12:08:07.237Z,17.18
2019-05-06T12:10:29.500Z,17.04
2019-05-06T12:12:59.023Z,17.19
2019-05-06T12:15:28.562Z,16.50
2019-05-06T12:17:58.040Z,18.34
2019-05-06T12:20:27.533Z,18.93
2019-05-06T12:22:57.026Z,17.65
2019-05-06T12:25:26.570Z,16.93
2019-05-06T12:27:56.097Z,18.87
2019-05-06T12:30:28.222Z,19.51
2019-05-06T12:32:59.359Z,21.59
2019-05-06T12:35:28.850Z,20.15
2019-05-06T12:38:05.167Z,20.31
2019-05-06T12:40:32.055Z,20.73
2019-05-06T12:43:04.114Z,20.23
2019-05-06T12:45:35.519Z,20.04
2019-05-06T12:48:06.727Z,20.24
2019-05-06T12:50:36.759Z,20.97
2019-05-06T12:53:06.222Z,19.71
2019-05-06T12:55:36.096Z,21.05
2019-05-06T12:58:05.618Z,22.64
2019-05-06T13:00:35.114Z,22.45
2019-05-06T13:03:04.711Z,22.02
2019-05-06T13:05:34.406Z,20.69
2019-05-06T13:08:05.938Z,21.15
2019-05-06T13:10:54.528Z,19.36
2019-05-06T13:13:24.300Z,18.38
2019-05-06T13:15:53.825Z,18.44
2019-05-06T13:18:23.400Z,18.21
2019-05-06T13:20:53.439Z,17.88
2019-05-06T13:23:26.968Z,18.30
2019-05-06T13:25:56.495Z,17.86
2019-05-06T13:28:30.433Z,17.92
2019-05-06T13:31:13.374Z,18.14
2019-05-06T13:36:07.903Z,19.54
2019-05-06T13:38:37.391Z,18.87
2019-05-06T13:41:06.865Z,19.21
2019-05-06T13:43:37.986Z,16.17
2019-05-06T13:46:09.305Z,16.91
2019-05-06T13:48:42.648Z,17.89
2019-05-06T13:51:13.659Z,18.33
2019-05-06T13:54:02.751Z,18.05
2019-05-06T13:56:33.341Z,18.26
2019-05-06T13:59:05.084Z,18.20
2019-05-06T14:01:35.891Z,17.92
2019-05-06T14:04:05.471Z,18.03
2019-05-06T14:06:35.326Z,18.43
2019-05-06T14:09:08.334Z,18.08
2019-05-06T14:11:38.249Z,17.78
2019-05-06T14:14:08.176Z,17.29
2019-05-06T14:16:37.675Z,16.79
2019-05-06T14:19:07.218Z,17.53
2019-05-06T14:21:36.689Z,16.88
2019-05-06T14:24:06.189Z,16.87
2019-05-06T14:26:37.270Z,17.00
2019-05-06T14:29:08.554Z,16.87
2019-05-06T14:31:39.663Z,17.29
2019-05-06T14:34:09.134Z,17.11
2019-05-06T14:36:38.645Z,17.14
2019-05-06T14:39:09.888Z,17.47
2019-05-06T14:41:44.580Z,16.96
2019-05-06T14:44:12.306Z,17.32
2019-05-06T14:46:43.382Z,17.46
2019-05-06T14:49:15.514Z,17.67
2019-05-06T14:51:53.526Z,17.30
2019-05-06T14:54:22.707Z,17.20
2019-05-06T14:56:53.783Z,17.41
2019-05-06T14:59:23.602Z,17.00
2019-05-06T15:01:53.907Z,16.56
2019-05-06T15:04:23.525Z,16.56
2019-05-06T15:06:53.184Z,16.79
2019-05-06T15:09:24.438Z,16.99
2019-05-06T15:11:53.899Z,16.95
2019-05-06T15:14:23.406Z,16.65
2019-05-06T15:16:53.145Z,16.99
2019-05-06T15:19:22.879Z,16.47
2019-05-06T15:21:53.083Z,16.83
2019-05-06T15:24:24.418Z,16.74
2019-05-06T15:27:13.353Z,16.63
2019-05-06T15:29:44.434Z,16.40
2019-05-06T15:32:15.664Z,15.46
2019-05-06T15:34:46.782Z,15.86
2019-05-06T15:37:17.906Z,16.46
2019-05-06T15:39:47.408Z,16.61
2019-05-06T15:42:17.040Z,16.68
2019-05-06T15:44:46.546Z,16.58
2019-05-06T15:47:16.015Z,16.20
2019-05-06T15:49:45.494Z,16.12
2019-05-06T15:52:15.066Z,16.21
2019-05-06T15:54:44.589Z,15.85
2019-05-06T15:57:14.088Z,15.53
2019-05-06T15:59:44.457Z,15.69
2019-05-06T16:02:14.107Z,16.01
2019-05-06T16:04:43.598Z,16.06
2019-05-06T16:07:13.156Z,15.86
2019-05-06T16:09:43.044Z,15.80
2019-05-06T16:12:12.918Z,15.59
2019-05-06T16:14:42.618Z,15.15
2019-05-06T16:17:12.739Z,15.02
2019-05-06T16:19:43.508Z,14.94
2019-05-06T16:22:13.012Z,14.62
2019-05-06T16:24:44.137Z,14.65
2019-05-06T16:27:13.632Z,14.69
2019-05-06T16:29:43.163Z,14.37
2019-05-06T16:32:12.719Z,14.51
2019-05-06T16:34:43.100Z,14.28
2019-05-06T16:37:12.805Z,14.27
2019-05-06T16:39:42.518Z,14.44
2019-05-06T16:42:12.880Z,14.46
2019-05-06T16:44:45.091Z,14.50
2019-05-06T16:47:15.743Z,14.49
2019-05-06T16:49:45.200Z,14.41
2019-05-06T16:52:14.723Z,14.26
2019-05-06T16:54:44.205Z,14.43
2019-05-06T16:57:15.287Z,14.60
2019-05-06T16:59:44.827Z,14.55
2019-05-06T17:02:15.886Z,14.42
2019-05-06T17:04:47.012Z,14.21
2019-05-06T17:07:16.958Z,14.49
2019-05-06T17:09:46.427Z,14.58
2019-05-06T17:12:15.945Z,14.43
2019-05-06T17:14:45.441Z,14.20
2019-05-06T17:17:15.007Z,13.90
2019-05-06T17:19:44.462Z,13.73
2019-05-06T17:22:13.952Z,13.70
2019-05-06T17:24:43.462Z,13.52
2019-05-06T17:27:13.023Z,13.16
2019-05-06T17:29:44.174Z,13.27
2019-05-06T17:32:15.334Z,12.98
2019-05-06T17:34:46.446Z,12.87
2019-05-06T17:37:17.570Z,13.01
2019-05-06T17:39:47.061Z,13.05
2019-05-06T17:42:16.555Z,12.68
2019-05-06T17:44:46.073Z,12.74
2019-05-06T17:47:23.290Z,12.46
2019-05-06T17:49:53.011Z,12.41
2019-05-06T17:52:24.197Z,12.33
2019-05-06T17:54:53.678Z,12.18
2019-05-06T17:57:23.186Z,12.12
2019-05-06T17:59:52.955Z,12.15
2019-05-06T18:02:24.109Z,12.17
2019-05-06T18:04:53.669Z,12.15
2019-05-06T18:07:23.252Z,12.05
2019-05-06T18:09:52.891Z,11.95
2019-05-06T18:12:23.315Z,11.91
2019-05-06T18:14:53.522Z,11.86
2019-05-06T18:17:23.154Z,11.82
2019-05-06T18:19:52.670Z,11.62
2019-05-06T18:22:22.714Z,11.53
2019-05-06T18:24:52.615Z,11.47
2019-05-06T18:27:22.691Z,11.30
2019-05-06T18:29:53.250Z,11.20
2019-05-06T18:32:23.474Z,11.14
2019-05-06T18:34:53.088Z,11.00
2019-05-06T18:37:23.343Z,10.84
2019-05-06T18:39:53.182Z,10.74
2019-05-06T18:42:43.033Z,10.79
2019-05-06T18:45:13.785Z,10.63
2019-05-06T18:47:43.265Z,10.46
2019-05-06T18:50:13.498Z,10.39
2019-05-06T18:52:43.173Z,10.38
2019-05-06T18:55:13.262Z,10.44
2019-05-06T18:57:42.743Z,10.47
2019-05-06T19:00:13.419Z,10.42
2019-05-06T19:02:42.874Z,10.48
2019-05-06T19:05:14.472Z,10.43
2019-05-06T19:07:46.582Z,10.31
2019-05-06T19:10:17.471Z,10.28
2019-05-06T19:12:46.985Z,10.14
2019-05-06T19:15:16.677Z,10.14
2019-05-06T19:17:46.180Z,10.04
2019-05-06T19:20:16.196Z,10.02
2019-05-06T19:22:45.676Z,9.96
2019-05-06T19:25:15.848Z,9.96
2019-05-06T19:27:45.533Z,10.03
2019-05-06T19:30:16.016Z,9.97
2019-05-06T19:32:45.871Z,9.92
2019-05-06T19:35:15.689Z,9.81
2019-05-06T19:37:45.215Z,9.76
2019-05-06T19:40:15.207Z,9.75
2019-05-06T19:42:50.291Z,9.66
2019-05-06T19:45:22.228Z,9.66
2019-05-06T19:47:52.178Z,9.58
2019-05-06T19:50:25.727Z,9.45
2019-05-06T19:52:52.927Z,9.35
2019-05-06T19:55:23.164Z,9.28
2019-05-06T19:57:52.770Z,9.20
2019-05-06T20:00:22.908Z,9.06
2019-05-06T20:02:52.802Z,9.00
2019-05-06T20:05:24.290Z,8.90
2019-05-06T20:07:55.385Z,8.82
2019-05-06T20:10:26.550Z,8.74
2019-05-06T20:13:01.954Z,8.69
2019-05-06T20:15:30.480Z,8.56
2019-05-06T20:17:59.956Z,8.48
2019-05-06T20:20:32.639Z,8.40
2019-05-06T20:23:02.705Z,8.29
2019-05-06T20:25:32.071Z,8.16
2019-05-06T20:28:02.394Z,8.13
2019-05-06T20:30:32.739Z,8.02
2019-05-06T20:33:02.419Z,7.94
2019-05-06T20:35:32.951Z,7.90
2019-05-06T20:38:02.886Z,7.79
2019-05-06T20:40:33.039Z,7.70
2019-05-06T20:43:16.667Z,7.62
2019-05-06T20:45:35.475Z,7.53
2019-05-06T20:48:05.432Z,7.45
2019-05-06T20:50:34.916Z,7.42
2019-05-06T20:53:04.341Z,7.29
2019-05-06T20:55:35.708Z,7.21
2019-05-06T20:58:05.499Z,7.10
2019-05-06T21:00:34.978Z,7.01
2019-05-06T21:03:04.794Z,6.90
2019-05-06T21:05:34.299Z,6.83
2019-05-06T21:08:03.804Z,6.76
2019-05-06T21:10:33.327Z,6.61
2019-05-06T21:13:02.808Z,6.54
2019-05-06T21:15:32.638Z,6.43
2019-05-06T21:18:04.405Z,6.31
2019-05-06T21:20:33.380Z,6.20
2019-05-06T21:23:02.864Z,6.18
2019-05-06T21:25:32.750Z,6.06
2019-05-06T21:28:03.032Z,5.96
2019-05-06T21:30:33.273Z,5.94
2019-05-06T21:33:02.748Z,5.92
2019-05-06T21:35:33.129Z,5.85
2019-05-06T21:38:02.826Z,5.86
2019-05-06T21:40:32.877Z,5.73
2019-05-06T21:43:02.448Z,5.67
2019-05-06T21:45:33.129Z,5.62
2019-05-06T21:48:03.363Z,5.59
2019-05-06T21:50:33.244Z,5.51
2019-05-06T21:53:03.642Z,5.42
2019-05-06T21:55:33.127Z,5.31
2019-05-06T21:58:02.632Z,5.32
2019-05-06T22:00:34.201Z,5.19
2019-05-06T22:03:03.994Z,5.09
2019-05-06T22:05:33.503Z,5.15
2019-05-06T22:08:23.745Z,4.98
2019-05-06T22:10:54.457Z,4.85
2019-05-06T22:13:23.950Z,4.81
2019-05-06T22:15:53.533Z,4.82
2019-05-06T22:18:23.101Z,4.84
2019-05-06T22:20:54.265Z,4.86
2019-05-06T22:23:23.909Z,4.81
2019-05-06T22:25:53.380Z,4.79
2019-05-06T22:28:25.832Z,4.70
2019-05-06T22:30:55.297Z,4.68
2019-05-06T22:33:24.848Z,4.62
2019-05-06T22:35:54.911Z,4.66
2019-05-06T22:38:24.554Z,4.66
2019-05-06T22:40:54.055Z,4.55
2019-05-06T22:43:23.515Z,4.50
2019-05-06T22:45:58.965Z,3.94
2019-05-06T22:48:28.407Z,4.46
2019-05-06T22:50:57.885Z,4.24
2019-05-06T22:53:27.426Z,4.32
2019-05-06T22:55:58.522Z,4.24
2019-05-06T22:58:27.964Z,4.13
2019-05-06T23:00:58.280Z,4.14
2019-05-06T23:03:29.357Z,4.02
2019-05-06T23:05:58.838Z,3.92
2019-05-06T23:08:28.358Z,3.96
2019-05-06T23:10:57.918Z,3.93
2019-05-06T23:13:27.395Z,3.96
2019-05-06T23:15:56.888Z,3.86
2019-05-06T23:18:26.380Z,3.82
2019-05-06T23:20:55.834Z,3.78
2019-05-06T23:23:25.337Z,3.64
2019-05-06T23:26:02.913Z,3.02
2019-05-06T23:28:32.396Z,3.70
2019-05-06T23:31:01.990Z,3.54
2019-05-06T23:33:32.314Z,3.54
2019-05-06T23:36:02.654Z,3.61
2019-05-06T23:38:36.795Z,3.60
2019-05-06T23:41:14.512Z,3.58
2019-05-06T23:43:48.501Z,3.55
2019-05-06T23:46:23.005Z,3.53
2019-05-06T23:48:57.016Z,3.48
2019-05-06T23:51:33.021Z,3.45
2019-05-06T23:54:06.753Z,3.37
2019-05-06T23:56:43.372Z,3.33
2019-05-06T23:59:16.968Z,3.35
